createdAt,value
2019-05-18T00:00:49.905Z,94.11
2019-05-18T00:01:49.811Z,94.52
2019-05-18T00:02:49.814Z,94.01
2019-05-18T00:03:49.805Z,94.01
2019-05-18T00:04:49.839Z,93.80
2019-05-18T00:05:49.786Z,94.32
2019-05-18T00:06:49.844Z,93.90
2019-05-18T00:07:49.747Z,94.83
2019-05-18T00:08:49.786Z,94.32
2019-05-18T00:09:49.725Z,94.93
2019-05-18T00:10:49.767Z,94.83
2019-05-18T00:11:49.707Z,94.93
2019-05-18T00:12:49.780Z,95.03
2019-05-18T00:13:50.893Z,94.32
2019-05-18T00:14:49.692Z,94.93
2019-05-18T00:15:49.661Z,94.32
2019-05-18T00:16:49.711Z,94.87
2019-05-18T00:17:49.651Z,94.87
2019-05-18T00:18:49.770Z,94.67
2019-05-18T00:19:49.628Z,94.46
2019-05-18T00:20:49.636Z,94.36
2019-05-18T00:21:49.595Z,94.98
2019-05-18T00:22:49.648Z,95.18
2019-05-18T00:23:49.607Z,94.98
2019-05-18T00:24:49.662Z,94.87
2019-05-18T00:25:49.554Z,94.98
2019-05-18T00:27:04.523Z,95.18
2019-05-18T00:27:49.530Z,95.07
2019-05-18T00:28:51.557Z,95.59
2019-05-18T00:29:49.509Z,95.32
2019-05-18T00:30:50.528Z,95.43
2019-05-18T00:31:49.491Z,95.64
2019-05-18T00:32:49.517Z,95.53
2019-05-18T00:33:49.486Z,95.43
2019-05-18T00:34:49.528Z,96.45
2019-05-18T00:35:49.450Z,96.15
2019-05-18T00:36:50.520Z,96.25
2019-05-18T00:37:49.424Z,96.56
2019-05-18T00:38:49.686Z,96.70
2019-05-18T00:39:49.408Z,96.60
2019-05-18T00:40:49.468Z,96.70
2019-05-18T00:41:50.397Z,96.30
2019-05-18T00:42:49.498Z,96.65
2019-05-18T00:43:49.359Z,96.34
2019-05-18T00:44:49.431Z,96.85
2019-05-18T00:45:49.337Z,97.06
2019-05-18T00:46:49.398Z,97.16
2019-05-18T00:47:49.319Z,97.16
2019-05-18T00:48:49.414Z,97.78
2019-05-18T00:49:49.307Z,97.62
2019-05-18T00:50:49.324Z,97.82
2019-05-18T00:51:49.281Z,98.08
2019-05-18T00:52:49.338Z,98.03
2019-05-18T00:53:49.255Z,97.72
2019-05-18T00:54:49.285Z,97.52
2019-05-18T00:55:49.237Z,98.33
2019-05-18T00:56:49.262Z,98.65
2019-05-18T00:57:49.210Z,98.75
2019-05-18T00:58:49.277Z,98.44
2019-05-18T00:59:49.199Z,98.96
2019-05-18T01:00:49.189Z,98.75
2019-05-18T01:01:49.173Z,99.57
2019-05-18T01:02:49.203Z,99.32
2019-05-18T01:03:49.142Z,99.11
2019-05-18T01:04:49.247Z,99.47
2019-05-18T01:05:49.134Z,99.57
2019-05-18T01:06:49.126Z,99.57
2019-05-18T01:07:49.096Z,99.05
2019-05-18T01:08:49.142Z,99.05
2019-05-18T01:09:49.095Z,99.26
2019-05-18T01:10:49.155Z,99.52
2019-05-18T01:11:49.055Z,99.32
2019-05-18T01:12:56.029Z,99.05
2019-05-18T01:13:49.033Z,99.77
2019-05-18T01:14:51.069Z,99.57
2019-05-18T01:15:50.394Z,99.26
2019-05-18T01:16:50.014Z,99.37
2019-05-18T01:17:56.781Z,99.37
2019-05-18T01:18:50.380Z,99.77
2019-05-18T01:19:49.052Z,99.99
2019-05-18T01:20:48.961Z,99.99
2019-05-18T01:21:49.029Z,99.99
2019-05-18T01:22:48.936Z,99.99
2019-05-18T01:23:48.941Z,99.99
2019-05-18T01:24:48.931Z,99.99
2019-05-18T01:25:48.962Z,99.99
2019-05-18T01:26:48.896Z,99.27
2019-05-18T01:27:48.968Z,99.79
2019-05-18T01:28:48.870Z,99.99
2019-05-18T01:29:48.921Z,99.84
2019-05-18T01:30:48.847Z,98.96
2019-05-18T01:31:48.892Z,98.66
2019-05-18T01:32:48.842Z,98.82
2019-05-18T01:33:48.905Z,99.27
2019-05-18T01:34:48.821Z,99.07
2019-05-18T01:35:48.816Z,98.82
2019-05-18T01:36:48.783Z,99.02
2019-05-18T01:37:48.829Z,98.41
2019-05-18T01:38:48.766Z,98.10
2019-05-18T01:39:48.890Z,97.95
2019-05-18T01:40:48.738Z,97.28
2019-05-18T01:41:48.756Z,97.03
2019-05-18T01:42:48.722Z,97.44
2019-05-18T01:43:48.767Z,97.54
2019-05-18T01:44:48.713Z,96.92
2019-05-18T01:45:48.780Z,96.41
2019-05-18T01:46:48.674Z,96.41
2019-05-18T01:47:48.693Z,96.72
2019-05-18T01:48:48.658Z,96.62
2019-05-18T01:49:48.767Z,96.72
2019-05-18T01:50:48.635Z,96.82
2019-05-18T01:51:48.722Z,96.31
2019-05-18T01:52:48.609Z,96.92
2019-05-18T01:53:48.631Z,96.31
2019-05-18T01:54:48.599Z,96.51
2019-05-18T01:55:48.645Z,96.62
2019-05-18T01:56:48.565Z,96.62
2019-05-18T01:57:48.656Z,96.20
2019-05-18T01:58:48.542Z,96.10
2019-05-18T01:59:54.028Z,96.20
2019-05-18T02:00:48.522Z,96.41
2019-05-18T02:01:50.531Z,96.41
2019-05-18T02:02:48.499Z,96.51
2019-05-18T02:03:49.517Z,96.20
2019-05-18T02:04:48.494Z,96.20
2019-05-18T02:05:48.507Z,96.20
2019-05-18T02:06:48.463Z,96.31
2019-05-18T02:07:48.522Z,95.95
2019-05-18T02:08:48.437Z,96.37
2019-05-18T02:09:49.489Z,96.51
2019-05-18T02:10:48.417Z,95.90
2019-05-18T02:11:48.446Z,95.95
2019-05-18T02:12:48.395Z,95.24
2019-05-18T02:13:48.459Z,96.06
2019-05-18T02:14:48.373Z,95.65
2019-05-18T02:15:48.405Z,95.54
2019-05-18T02:16:48.350Z,95.03
2019-05-18T02:17:48.384Z,95.24
2019-05-18T02:18:48.366Z,95.03
2019-05-18T02:19:48.398Z,94.62
2019-05-18T02:20:48.321Z,94.83
2019-05-18T02:21:48.312Z,94.73
2019-05-18T02:22:48.287Z,94.32
2019-05-18T02:23:48.323Z,94.62
2019-05-18T02:24:48.268Z,94.73
2019-05-18T02:25:48.381Z,94.83
2019-05-18T02:26:48.242Z,94.62
2019-05-18T02:27:48.249Z,94.52
2019-05-18T02:28:48.229Z,94.83
2019-05-18T02:29:48.280Z,94.83
2019-05-18T02:30:48.212Z,94.93
2019-05-18T02:31:48.677Z,94.73
2019-05-18T02:32:48.178Z,94.42
2019-05-18T02:33:48.188Z,94.52
2019-05-18T02:34:48.156Z,94.83
2019-05-18T02:35:48.242Z,94.83
2019-05-18T02:36:48.133Z,94.42
2019-05-18T02:37:48.214Z,94.48
2019-05-18T02:38:48.112Z,94.83
2019-05-18T02:39:48.126Z,94.93
2019-05-18T02:40:48.108Z,94.93
2019-05-18T02:41:48.138Z,94.93
2019-05-18T02:42:48.073Z,94.83
2019-05-18T02:43:48.155Z,94.93
2019-05-18T02:44:48.048Z,94.17
2019-05-18T02:45:58.032Z,94.01
2019-05-18T02:46:48.037Z,93.96
2019-05-18T02:48:03.029Z,93.96
2019-05-18T02:48:50.523Z,94.11
2019-05-18T02:49:49.016Z,93.70
2019-05-18T02:50:48.000Z,93.76
2019-05-18T02:51:48.004Z,94.21
2019-05-18T02:52:47.968Z,93.60
2019-05-18T02:53:48.020Z,93.90
2019-05-18T02:54:47.946Z,94.01
2019-05-18T02:55:47.960Z,93.70
2019-05-18T02:56:47.919Z,93.80
2019-05-18T02:57:47.958Z,94.05
2019-05-18T02:58:47.900Z,93.74
2019-05-18T02:59:47.905Z,94.05
2019-05-18T03:00:47.895Z,94.05
2019-05-18T03:01:47.972Z,94.15
2019-05-18T03:02:47.890Z,94.87
2019-05-18T03:03:47.885Z,94.98
2019-05-18T03:04:47.849Z,94.56
2019-05-18T03:05:47.926Z,95.02
2019-05-18T03:06:47.808Z,95.43
2019-05-18T03:07:47.912Z,95.43
2019-05-18T03:08:47.795Z,95.64
2019-05-18T03:09:47.822Z,95.94
2019-05-18T03:10:47.784Z,96.66
2019-05-18T03:11:47.835Z,96.66
2019-05-18T03:12:47.743Z,96.66
2019-05-18T03:13:47.745Z,96.45
2019-05-18T03:14:47.727Z,96.35
2019-05-18T03:15:47.798Z,96.66
2019-05-18T03:16:47.716Z,96.45
2019-05-18T03:17:47.774Z,96.77
2019-05-18T03:19:06.258Z,96.87
2019-05-18T03:19:48.673Z,96.56
2019-05-18T03:20:47.700Z,96.40
2019-05-18T03:21:47.646Z,96.60
2019-05-18T03:22:47.703Z,96.40
2019-05-18T03:23:47.623Z,96.85
2019-05-18T03:24:47.722Z,96.44
2019-05-18T03:25:47.622Z,97.32
2019-05-18T03:26:47.630Z,97.53
2019-05-18T03:27:47.590Z,97.78
2019-05-18T03:28:47.645Z,97.37
2019-05-18T03:29:47.570Z,97.27
2019-05-18T03:31:02.126Z,97.57
2019-05-18T03:31:47.539Z,97.37
2019-05-18T03:32:54.546Z,97.10
2019-05-18T03:33:47.520Z,97.16
2019-05-18T03:34:49.550Z,97.31
2019-05-18T03:35:47.512Z,97.62
2019-05-18T03:36:48.519Z,97.31
2019-05-18T03:37:47.473Z,97.87
2019-05-18T03:38:47.507Z,97.97
2019-05-18T03:39:47.452Z,98.07
2019-05-18T03:40:47.557Z,99.10
2019-05-18T03:41:47.430Z,99.31
2019-05-18T03:42:48.456Z,99.05
2019-05-18T03:43:47.811Z,99.05
2019-05-18T03:44:47.448Z,99.47
2019-05-18T03:45:47.388Z,99.57
2019-05-18T03:46:47.503Z,99.16
2019-05-18T03:47:47.363Z,98.96
2019-05-18T03:48:47.375Z,99.00
2019-05-18T03:49:47.342Z,99.00
2019-05-18T03:50:47.385Z,99.41
2019-05-18T03:51:47.339Z,99.98
2019-05-18T03:52:47.398Z,99.99
2019-05-18T03:53:47.299Z,99.99
2019-05-18T03:54:47.309Z,99.10
2019-05-18T03:55:47.277Z,99.05
2019-05-18T03:56:47.360Z,99.21
2019-05-18T03:57:47.264Z,99.05
2019-05-18T03:58:47.344Z,99.15
2019-05-18T03:59:47.231Z,99.87
2019-05-18T04:00:47.251Z,99.97
2019-05-18T04:01:47.231Z,99.99
2019-05-18T04:02:47.264Z,99.97
2019-05-18T04:03:47.185Z,99.93
2019-05-18T04:04:47.278Z,99.99
2019-05-18T04:05:47.164Z,99.97
2019-05-18T04:06:47.218Z,99.99
2019-05-18T04:07:47.140Z,99.99
2019-05-18T04:08:47.208Z,99.99
2019-05-18T04:09:47.121Z,99.99
2019-05-18T04:10:47.214Z,99.99
2019-05-18T04:11:47.117Z,99.99
2019-05-18T04:12:47.126Z,99.99
2019-05-18T04:13:47.090Z,99.99
2019-05-18T04:14:47.161Z,99.99
2019-05-18T04:15:47.054Z,99.99
2019-05-18T04:16:50.565Z,99.99
2019-05-18T04:17:47.044Z,99.99
2019-05-18T04:18:54.027Z,99.99
2019-05-18T04:19:47.715Z,99.99
2019-05-18T04:20:49.024Z,99.99
2019-05-18T04:21:47.012Z,99.99
2019-05-18T04:22:46.998Z,99.99
2019-05-18T04:23:47.903Z,99.99
2019-05-18T04:24:47.003Z,99.99
2019-05-18T04:25:46.950Z,99.99
2019-05-18T04:26:47.052Z,99.99
2019-05-18T04:27:46.926Z,99.99
2019-05-18T04:28:46.931Z,99.99
2019-05-18T04:29:46.906Z,99.98
2019-05-18T04:30:46.944Z,99.99
2019-05-18T04:31:46.897Z,99.99
2019-05-18T04:32:46.961Z,99.99
2019-05-18T04:33:46.866Z,99.99
2019-05-18T04:34:46.868Z,99.99
2019-05-18T04:35:46.844Z,99.99
2019-05-18T04:36:46.962Z,99.99
2019-05-18T04:37:46.823Z,99.99
2019-05-18T04:38:46.894Z,99.99
2019-05-18T04:39:46.793Z,99.99
2019-05-18T04:40:46.873Z,99.89
2019-05-18T04:41:46.800Z,99.99
2019-05-18T04:42:46.821Z,99.63
2019-05-18T04:43:46.751Z,99.59
2019-05-18T04:44:46.844Z,98.72
2019-05-18T04:45:46.732Z,98.62
2019-05-18T04:46:46.805Z,98.37
2019-05-18T04:47:48.711Z,97.81
2019-05-18T04:48:46.764Z,96.44
2019-05-18T04:50:03.936Z,94.65
2019-05-18T04:50:47.672Z,94.04
2019-05-18T04:51:46.709Z,92.77
2019-05-18T04:52:46.666Z,91.15
2019-05-18T04:53:46.690Z,91.46
2019-05-18T04:54:46.636Z,91.11
2019-05-18T04:55:46.706Z,90.39
2019-05-18T04:56:46.614Z,89.12
2019-05-18T04:57:46.647Z,89.28
2019-05-18T04:58:46.587Z,88.47
2019-05-18T04:59:46.631Z,88.26
2019-05-18T05:00:46.564Z,85.51
2019-05-18T05:01:46.647Z,85.37
2019-05-18T05:02:46.559Z,85.02
2019-05-18T05:03:53.518Z,84.82
2019-05-18T05:04:46.522Z,82.98
2019-05-18T05:05:53.531Z,83.25
2019-05-18T05:06:46.503Z,82.13
2019-05-18T05:07:47.537Z,82.70
2019-05-18T05:08:46.479Z,81.58
2019-05-18T05:09:46.493Z,81.79
2019-05-18T05:10:46.454Z,82.43
2019-05-18T05:11:46.509Z,82.60
2019-05-18T05:12:46.458Z,82.40
2019-05-18T05:13:46.521Z,81.04
2019-05-18T05:14:46.415Z,80.42
2019-05-18T05:15:46.431Z,80.38
2019-05-18T05:16:46.392Z,79.47
2019-05-18T05:17:46.476Z,79.13
2019-05-18T05:18:46.368Z,80.08
2019-05-18T05:19:46.459Z,78.82
2019-05-18T05:20:46.354Z,78.86
2019-05-18T05:21:46.372Z,79.02
2019-05-18T05:22:46.335Z,79.33
2019-05-18T05:23:46.385Z,78.28
2019-05-18T05:24:46.299Z,78.14
2019-05-18T05:25:46.399Z,78.24
2019-05-18T05:26:46.277Z,77.19
2019-05-18T05:27:46.353Z,76.61
2019-05-18T05:28:46.255Z,77.33
2019-05-18T05:29:46.325Z,76.68
2019-05-18T05:30:46.231Z,77.19
2019-05-18T05:31:46.237Z,75.83
2019-05-18T05:32:46.229Z,76.00
2019-05-18T05:33:46.251Z,75.79
2019-05-18T05:34:46.220Z,75.52
2019-05-18T05:35:46.265Z,73.86
2019-05-18T05:36:46.167Z,73.19
2019-05-18T05:37:46.212Z,73.19
2019-05-18T05:38:46.144Z,73.46
2019-05-18T05:39:46.193Z,72.85
2019-05-18T05:40:46.135Z,72.96
2019-05-18T05:41:46.206Z,72.72
2019-05-18T05:42:46.115Z,73.12
2019-05-18T05:43:46.119Z,72.41
2019-05-18T05:44:46.080Z,72.75
2019-05-18T05:45:46.138Z,73.90
2019-05-18T05:46:46.060Z,73.53
2019-05-18T05:47:49.562Z,74.65
2019-05-18T05:48:46.034Z,74.24
2019-05-18T05:49:54.043Z,74.44
2019-05-18T05:50:46.017Z,73.70
2019-05-18T05:51:53.547Z,75.46
2019-05-18T05:52:46.010Z,73.49
2019-05-18T05:53:47.006Z,73.29
2019-05-18T05:54:45.972Z,73.36
2019-05-18T05:55:46.006Z,73.05
2019-05-18T05:56:45.951Z,72.85
2019-05-18T05:57:46.045Z,75.62
2019-05-18T05:58:45.930Z,74.13
2019-05-18T05:59:46.029Z,73.09
2019-05-18T06:00:45.903Z,72.34
2019-05-18T06:01:45.929Z,71.23
2019-05-18T06:02:45.898Z,71.84
2019-05-18T06:03:45.941Z,71.97
2019-05-18T06:04:45.860Z,72.92
2019-05-18T06:05:45.955Z,72.78
2019-05-18T06:06:45.837Z,71.97
2019-05-18T06:07:45.901Z,71.64
2019-05-18T06:08:45.821Z,72.65
2019-05-18T06:09:45.879Z,71.84
2019-05-18T06:10:45.796Z,71.00
2019-05-18T06:11:45.893Z,70.29
2019-05-18T06:12:45.786Z,70.79
2019-05-18T06:13:45.838Z,71.23
2019-05-18T06:14:45.753Z,71.64
2019-05-18T06:15:45.818Z,71.57
2019-05-18T06:16:45.735Z,69.31
2019-05-18T06:17:45.729Z,70.25
2019-05-18T06:18:45.734Z,71.47
2019-05-18T06:19:45.745Z,70.46
2019-05-18T06:20:51.388Z,70.83
2019-05-18T06:21:46.784Z,71.33
2019-05-18T06:22:45.685Z,69.58
2019-05-18T06:23:45.675Z,70.29
2019-05-18T06:24:45.644Z,68.54
2019-05-18T06:25:45.682Z,67.43
2019-05-18T06:26:45.624Z,68.84
2019-05-18T06:27:45.702Z,70.09
2019-05-18T06:28:45.616Z,71.40
2019-05-18T06:29:45.614Z,72.72
2019-05-18T06:30:45.586Z,71.77
2019-05-18T06:31:45.625Z,71.00
2019-05-18T06:32:45.573Z,68.47
2019-05-18T06:33:49.059Z,69.38
2019-05-18T06:34:45.933Z,70.15
2019-05-18T06:35:45.549Z,69.68
2019-05-18T06:36:45.515Z,66.16
2019-05-18T06:37:45.562Z,66.69
2019-05-18T06:38:45.514Z,65.62
2019-05-18T06:39:45.576Z,65.95
2019-05-18T06:40:45.472Z,66.02
2019-05-18T06:41:45.487Z,65.79
2019-05-18T06:42:45.450Z,65.99
2019-05-18T06:43:45.530Z,64.78
2019-05-18T06:44:45.429Z,65.95
2019-05-18T06:45:45.517Z,65.85
2019-05-18T06:46:45.407Z,65.62
2019-05-18T06:47:48.257Z,65.79
2019-05-18T06:48:45.404Z,63.65
2019-05-18T06:49:45.443Z,64.25
2019-05-18T06:50:45.364Z,63.31
2019-05-18T06:51:45.457Z,64.15
2019-05-18T06:52:45.348Z,63.95
2019-05-18T06:53:45.396Z,64.75
2019-05-18T06:54:45.326Z,64.72
2019-05-18T06:55:45.388Z,65.82
2019-05-18T06:56:45.308Z,66.19
2019-05-18T06:57:45.397Z,65.92
2019-05-18T06:58:45.301Z,64.41
2019-05-18T06:59:45.279Z,65.72
2019-05-18T07:00:45.263Z,64.65
2019-05-18T07:01:45.318Z,63.65
2019-05-18T07:02:46.420Z,65.53
2019-05-18T07:03:45.276Z,64.39
2019-05-18T07:04:45.217Z,63.05
2019-05-18T07:05:45.274Z,63.65
2019-05-18T07:06:45.202Z,65.09
2019-05-18T07:07:45.253Z,65.46
2019-05-18T07:08:45.190Z,63.68
2019-05-18T07:09:45.267Z,63.32
2019-05-18T07:10:45.156Z,62.16
2019-05-18T07:11:45.151Z,59.62
2019-05-18T07:12:45.136Z,60.62
2019-05-18T07:13:45.230Z,60.28
2019-05-18T07:14:45.110Z,61.46
2019-05-18T07:15:45.206Z,60.96
2019-05-18T07:16:45.118Z,60.25
2019-05-18T07:17:47.168Z,59.29
2019-05-18T07:18:45.084Z,58.56
2019-05-18T07:19:46.155Z,57.48
2019-05-18T07:20:45.059Z,59.25
2019-05-18T07:21:52.039Z,59.14
2019-05-18T07:22:45.024Z,59.55
2019-05-18T07:23:45.033Z,60.22
2019-05-18T07:24:45.001Z,59.45
2019-05-18T07:25:47.018Z,59.55
2019-05-18T07:26:44.980Z,59.45
2019-05-18T07:27:44.980Z,60.52
2019-05-18T07:28:44.971Z,59.29
2019-05-18T07:29:45.000Z,58.09
2019-05-18T07:30:44.937Z,59.45
2019-05-18T07:31:45.013Z,57.81
2019-05-18T07:32:44.909Z,60.49
2019-05-18T07:33:44.956Z,60.03
2019-05-18T07:34:44.886Z,57.20
2019-05-18T07:35:44.937Z,56.93
2019-05-18T07:36:44.872Z,56.80
2019-05-18T07:37:44.952Z,57.98
2019-05-18T07:38:44.863Z,57.53
2019-05-18T07:39:44.868Z,58.46
2019-05-18T07:40:44.824Z,57.53
2019-05-18T07:41:47.031Z,58.39
2019-05-18T07:42:44.803Z,58.03
2019-05-18T07:43:44.926Z,56.80
2019-05-18T07:44:44.785Z,57.60
2019-05-18T07:45:44.800Z,58.29
2019-05-18T07:46:44.762Z,59.80
2019-05-18T07:47:44.817Z,60.91
2019-05-18T07:48:44.776Z,60.38
2019-05-18T07:49:44.827Z,59.42
2019-05-18T07:50:44.732Z,57.98
2019-05-18T07:51:44.738Z,56.30
2019-05-18T07:52:44.762Z,55.77
2019-05-18T07:53:44.753Z,57.55
2019-05-18T07:54:44.734Z,56.07
2019-05-18T07:55:44.763Z,57.17
2019-05-18T07:56:44.654Z,56.60
2019-05-18T07:57:44.674Z,55.07
2019-05-18T07:58:44.629Z,55.87
2019-05-18T07:59:44.720Z,55.07
2019-05-18T08:00:44.612Z,55.60
2019-05-18T08:01:44.702Z,58.03
2019-05-18T08:02:44.590Z,58.18
2019-05-18T08:04:44.582Z,57.83
2019-05-18T08:06:44.538Z,55.13
2019-05-18T08:07:44.592Z,57.00
2019-05-18T08:08:44.544Z,56.77
2019-05-18T08:09:44.531Z,57.65
2019-05-18T08:10:44.559Z,55.44
2019-05-18T08:11:44.491Z,55.72
2019-05-18T08:12:44.573Z,55.07
2019-05-18T08:13:44.462Z,54.77
2019-05-18T08:14:44.521Z,55.90
2019-05-18T08:15:44.444Z,56.30
2019-05-18T08:16:44.496Z,55.70
2019-05-18T08:17:44.421Z,55.07
2019-05-18T08:18:44.511Z,56.02
2019-05-18T08:19:44.420Z,55.74
2019-05-18T08:20:44.400Z,53.12
2019-05-18T08:21:52.647Z,52.27
2019-05-18T08:22:45.367Z,53.02
2019-05-18T08:23:44.448Z,53.39
2019-05-18T08:24:44.363Z,55.85
2019-05-18T08:25:44.353Z,54.05
2019-05-18T08:26:44.339Z,55.27
2019-05-18T08:27:44.369Z,54.97
2019-05-18T08:28:44.306Z,55.07
2019-05-18T08:29:44.416Z,56.62
2019-05-18T08:30:44.281Z,53.32
2019-05-18T08:31:44.293Z,53.64
2019-05-18T08:32:44.260Z,53.19
2019-05-18T08:33:44.306Z,50.70
2019-05-18T08:34:44.258Z,51.92
2019-05-18T08:35:44.320Z,51.54
2019-05-18T08:36:44.218Z,52.25
2019-05-18T08:37:44.231Z,52.17
2019-05-18T08:38:44.196Z,51.34
2019-05-18T08:39:44.281Z,50.12
2019-05-18T08:40:44.175Z,50.32
2019-05-18T08:41:44.263Z,49.92
2019-05-18T08:42:44.153Z,51.04
2019-05-18T08:43:44.169Z,52.17
2019-05-18T08:44:44.162Z,51.97
2019-05-18T08:45:44.186Z,50.97
2019-05-18T08:46:44.111Z,49.67
2019-05-18T08:47:44.197Z,50.72
2019-05-18T08:48:44.089Z,49.30
2019-05-18T08:49:49.680Z,51.27
2019-05-18T08:50:44.071Z,47.98
2019-05-18T08:51:52.115Z,49.05
2019-05-18T08:52:44.047Z,49.25
2019-05-18T08:53:45.061Z,47.68
2019-05-18T08:54:44.057Z,47.96
2019-05-18T08:55:44.047Z,49.93
2019-05-18T08:56:44.011Z,48.38
2019-05-18T08:57:44.064Z,49.87
2019-05-18T08:58:43.986Z,49.40
2019-05-18T08:59:44.078Z,48.97
2019-05-18T09:00:43.983Z,47.80
2019-05-18T09:01:43.986Z,48.00
2019-05-18T09:02:43.957Z,50.00
2019-05-18T09:03:44.006Z,48.35
2019-05-18T09:04:43.922Z,47.96
2019-05-18T09:05:43.946Z,48.35
2019-05-18T09:06:43.899Z,49.68
2019-05-18T09:07:43.927Z,47.96
2019-05-18T09:08:43.882Z,47.19
2019-05-18T09:09:43.941Z,46.65
2019-05-18T09:10:43.870Z,46.92
2019-05-18T09:11:43.952Z,46.08
2019-05-18T09:12:43.837Z,46.03
2019-05-18T09:13:43.866Z,45.14
2019-05-18T09:14:43.821Z,45.50
2019-05-18T09:15:43.908Z,46.31
2019-05-18T09:16:43.790Z,47.77
2019-05-18T09:17:43.893Z,45.83
2019-05-18T09:18:43.777Z,44.92
2019-05-18T09:19:43.803Z,46.05
2019-05-18T09:20:43.774Z,46.47
2019-05-18T09:21:43.816Z,46.09
2019-05-18T09:22:43.728Z,46.33
2019-05-18T09:23:43.779Z,43.82
2019-05-18T09:24:43.709Z,45.83
2019-05-18T09:25:43.773Z,45.97
2019-05-18T09:26:43.691Z,45.95
2019-05-18T09:27:43.756Z,44.85
2019-05-18T09:28:43.662Z,44.62
2019-05-18T09:29:43.668Z,44.14
2019-05-18T09:30:43.657Z,45.14
2019-05-18T09:31:43.682Z,45.63
2019-05-18T09:32:43.618Z,46.83
2019-05-18T09:33:44.721Z,44.24
2019-05-18T09:34:43.598Z,45.48
2019-05-18T09:35:47.119Z,46.83
2019-05-18T09:36:43.587Z,45.51
2019-05-18T09:37:50.586Z,45.11
2019-05-18T09:38:43.555Z,45.47
2019-05-18T09:39:45.582Z,43.48
2019-05-18T09:40:43.550Z,42.99
2019-05-18T09:41:43.544Z,43.46
2019-05-18T09:42:44.462Z,41.55
2019-05-18T09:43:43.558Z,45.74
2019-05-18T09:44:43.546Z,45.27
2019-05-18T09:45:43.606Z,43.57
2019-05-18T09:46:43.471Z,45.37
2019-05-18T09:47:43.482Z,45.76
2019-05-18T09:48:43.451Z,47.36
2019-05-18T09:49:43.498Z,47.93
2019-05-18T09:50:43.429Z,47.31
2019-05-18T09:51:43.545Z,46.01
2019-05-18T09:52:45.260Z,45.24
2019-05-18T09:53:51.277Z,46.73
2019-05-18T09:54:44.384Z,46.89
2019-05-18T09:55:43.436Z,45.18
2019-05-18T09:56:43.382Z,45.48
2019-05-18T09:57:43.454Z,45.67
2019-05-18T09:58:43.344Z,42.77
2019-05-18T09:59:43.362Z,42.53
2019-05-18T10:00:43.329Z,44.10
2019-05-18T10:01:43.403Z,42.51
2019-05-18T10:02:43.306Z,43.20
2019-05-18T10:03:43.387Z,41.89
2019-05-18T10:04:43.289Z,41.71
2019-05-18T10:05:43.282Z,42.71
2019-05-18T10:06:43.271Z,44.62
2019-05-18T10:07:43.341Z,46.25
2019-05-18T10:08:43.249Z,43.98
2019-05-18T10:09:43.338Z,42.29
2019-05-18T10:10:43.224Z,41.89
2019-05-18T10:11:43.275Z,41.09
2019-05-18T10:12:43.194Z,41.08
2019-05-18T10:13:43.254Z,42.37
2019-05-18T10:14:43.172Z,43.07
2019-05-18T10:15:43.272Z,42.23
2019-05-18T10:16:43.184Z,41.31
2019-05-18T10:17:43.176Z,39.71
2019-05-18T10:18:43.132Z,41.87
2019-05-18T10:19:43.196Z,40.78
2019-05-18T10:20:43.121Z,40.30
2019-05-18T10:21:43.132Z,39.73
2019-05-18T10:22:55.107Z,40.01
2019-05-18T10:23:44.084Z,40.41
2019-05-18T10:24:50.605Z,40.44
2019-05-18T10:25:43.062Z,41.09
2019-05-18T10:26:44.089Z,39.93
2019-05-18T10:27:43.044Z,39.29
2019-05-18T10:28:43.047Z,37.13
2019-05-18T10:29:43.873Z,39.37
2019-05-18T10:30:43.060Z,38.49
2019-05-18T10:31:43.019Z,37.79
2019-05-18T10:32:43.075Z,39.06
2019-05-18T10:33:42.980Z,36.35
2019-05-18T10:34:43.008Z,37.93
2019-05-18T10:35:42.958Z,36.44
2019-05-18T10:36:43.039Z,37.55
2019-05-18T10:37:42.932Z,38.88
2019-05-18T10:38:43.013Z,40.09
2019-05-18T10:39:42.910Z,41.60
2019-05-18T10:40:42.916Z,38.81
2019-05-18T10:41:42.923Z,40.82
2019-05-18T10:42:42.945Z,40.98
2019-05-18T10:43:46.983Z,39.47
2019-05-18T10:44:42.953Z,39.04
2019-05-18T10:45:45.046Z,38.38
2019-05-18T10:46:42.893Z,39.77
2019-05-18T10:47:42.825Z,39.49
2019-05-18T10:48:42.883Z,39.21
2019-05-18T10:49:42.806Z,40.54
2019-05-18T10:50:42.891Z,41.53
2019-05-18T10:51:42.807Z,41.83
2019-05-18T10:52:42.807Z,38.90
2019-05-18T10:53:42.761Z,39.37
2019-05-18T10:54:42.819Z,38.50
2019-05-18T10:55:42.741Z,39.19
2019-05-18T10:56:42.761Z,36.99
2019-05-18T10:57:42.729Z,37.27
2019-05-18T10:58:42.744Z,37.17
2019-05-18T10:59:42.733Z,37.45
2019-05-18T11:00:42.781Z,36.84
2019-05-18T11:01:44.017Z,39.00
2019-05-18T11:02:42.771Z,36.52
2019-05-18T11:03:42.669Z,36.90
2019-05-18T11:04:42.682Z,36.61
2019-05-18T11:05:42.668Z,35.98
2019-05-18T11:06:46.228Z,36.24
2019-05-18T11:07:42.616Z,36.85
2019-05-18T11:08:51.619Z,36.82
2019-05-18T11:09:43.992Z,37.09
2019-05-18T11:10:42.623Z,38.78
2019-05-18T11:11:42.599Z,36.68
2019-05-18T11:12:50.113Z,37.49
2019-05-18T11:13:42.560Z,36.68
2019-05-18T11:14:43.578Z,37.57
2019-05-18T11:15:42.532Z,36.56
2019-05-18T11:16:42.590Z,35.55
2019-05-18T11:17:42.514Z,36.94
2019-05-18T11:18:42.578Z,36.41
2019-05-18T11:19:42.496Z,35.25
2019-05-18T11:20:42.585Z,34.92
2019-05-18T11:21:42.504Z,34.12
2019-05-18T11:22:42.506Z,36.04
2019-05-18T11:23:44.304Z,37.26
2019-05-18T11:24:43.541Z,34.00
2019-05-18T11:25:42.431Z,34.34
2019-05-18T11:26:42.451Z,34.51
2019-05-18T11:27:42.411Z,34.00
2019-05-18T11:28:42.441Z,33.85
2019-05-18T11:29:42.390Z,35.35
2019-05-18T11:30:42.451Z,34.55
2019-05-18T11:31:42.401Z,34.23
2019-05-18T11:32:42.476Z,34.71
2019-05-18T11:33:42.348Z,33.62
2019-05-18T11:34:42.391Z,34.82
2019-05-18T11:35:42.332Z,35.75
2019-05-18T11:36:42.397Z,36.27
2019-05-18T11:37:42.337Z,34.81
2019-05-18T11:38:42.413Z,34.76
2019-05-18T11:39:42.292Z,34.53
2019-05-18T11:40:42.353Z,36.08
2019-05-18T11:41:42.260Z,33.28
2019-05-18T11:42:42.372Z,33.75
2019-05-18T11:43:42.238Z,34.00
2019-05-18T11:44:42.251Z,32.03
2019-05-18T11:45:42.220Z,32.87
2019-05-18T11:46:42.670Z,34.28
2019-05-18T11:47:42.206Z,34.95
2019-05-18T11:48:42.272Z,34.84
2019-05-18T11:49:42.173Z,34.08
2019-05-18T11:50:42.183Z,33.28
2019-05-18T11:51:42.151Z,34.86
2019-05-18T11:52:47.663Z,34.00
2019-05-18T11:53:42.135Z,33.59
2019-05-18T11:54:49.177Z,34.86
2019-05-18T11:55:42.113Z,33.58
2019-05-18T11:56:42.123Z,36.35
2019-05-18T11:57:42.099Z,33.82
2019-05-18T11:58:42.159Z,35.35
2019-05-18T11:59:42.067Z,32.73
2019-05-18T12:00:44.113Z,32.11
2019-05-18T12:01:42.054Z,31.60
2019-05-18T12:02:42.092Z,33.72
2019-05-18T12:03:42.036Z,33.31
2019-05-18T12:04:42.074Z,31.01
2019-05-18T12:05:42.063Z,30.02
2019-05-18T12:06:42.115Z,31.18
2019-05-18T12:07:42.013Z,31.79
2019-05-18T12:08:41.993Z,33.07
2019-05-18T12:09:41.966Z,30.34
2019-05-18T12:10:42.031Z,32.23
2019-05-18T12:11:41.947Z,32.93
2019-05-18T12:12:42.059Z,33.15
2019-05-18T12:13:41.946Z,34.84
2019-05-18T12:14:41.931Z,36.19
2019-05-18T12:15:41.908Z,36.46
2019-05-18T12:16:41.951Z,33.41
2019-05-18T12:17:41.908Z,33.28
2019-05-18T12:18:41.962Z,33.38
2019-05-18T12:19:41.878Z,30.71
2019-05-18T12:20:41.882Z,31.31
2019-05-18T12:21:41.864Z,30.90
2019-05-18T12:22:41.917Z,32.13
2019-05-18T12:23:41.845Z,33.17
2019-05-18T12:24:41.897Z,30.21
2019-05-18T12:25:41.819Z,33.41
2019-05-18T12:26:41.815Z,34.72
2019-05-18T12:27:41.823Z,34.72
2019-05-18T12:28:41.784Z,33.56
2019-05-18T12:29:41.763Z,32.31
2019-05-18T12:30:41.850Z,35.27
2019-05-18T12:31:41.749Z,33.37
2019-05-18T12:32:41.784Z,33.80
2019-05-18T12:33:41.723Z,31.14
2019-05-18T12:34:44.780Z,31.48
2019-05-18T12:35:41.711Z,31.90
2019-05-18T12:36:41.777Z,30.69
2019-05-18T12:37:41.710Z,31.51
2019-05-18T12:38:41.794Z,35.52
2019-05-18T12:39:41.663Z,36.41
2019-05-18T12:40:43.761Z,33.52
2019-05-18T12:41:41.652Z,36.13
2019-05-18T12:42:42.682Z,33.82
2019-05-18T12:43:41.630Z,33.47
2019-05-18T12:44:41.633Z,35.46
2019-05-18T12:45:41.597Z,35.21
2019-05-18T12:46:41.668Z,31.60
2019-05-18T12:47:41.604Z,33.13
2019-05-18T12:48:41.658Z,32.07
2019-05-18T12:49:41.555Z,32.21
2019-05-18T12:50:41.567Z,31.79
2019-05-18T12:51:41.533Z,36.04
2019-05-18T12:52:41.610Z,33.87
2019-05-18T12:53:41.513Z,33.28
2019-05-18T12:54:46.484Z,31.70